sensor_id;sensor_type;location;lat;lon;timestamp;pressure;altitude;pressure_sealevel;temperature;humidity
21824;BME280;11074;48.596;9.238;2023-01-31T00:00:20;99183.44;;;4.32;85.69
21824;BME280;11074;48.596;9.238;2023-01-31T00:02:45;99179.78;;;4.33;86.13
21824;BME280;11074;48.596;9.238;2023-01-31T00:05:11;99173.03;;;4.30;85.61
21824;BME280;11074;48.596;9.238;2023-01-31T00:07:37;99172.84;;;4.32;86.04
21824;BME280;11074;48.596;9.238;2023-01-31T00:10:03;99185.34;;;4.38;85.75
21824;BME280;11074;48.596;9.238;2023-01-31T00:12:28;99176.31;;;4.32;85.72
21824;BME280;11074;48.596;9.238;2023-01-31T00:14:54;99171.03;;;4.32;85.88
21824;BME280;11074;48.596;9.238;2023-01-31T00:17:20;99170.84;;;4.34;85.85
21824;BME280;11074;48.596;9.238;2023-01-31T00:19:45;99169.00;;;4.34;86.59
21824;BME280;11074;48.596;9.238;2023-01-31T00:22:11;99169.19;;;4.33;85.55
21824;BME280;11074;48.596;9.238;2023-01-31T00:24:36;99171.59;;;4.27;86.59
21824;BME280;11074;48.596;9.238;2023-01-31T00:27:02;99175.53;;;4.17;86.66
21824;BME280;11074;48.596;9.238;2023-01-31T00:29:28;99171.75;;;4.26;86.41
21824;BME280;11074;48.596;9.238;2023-01-31T00:31:55;99170.31;;;4.23;86.59
21824;BME280;11074;48.596;9.238;2023-01-31T00:34:21;99166.47;;;4.26;86.43
21824;BME280;11074;48.596;9.238;2023-01-31T00:36:46;99165.69;;;4.25;86.39
21824;BME280;11074;48.596;9.238;2023-01-31T00:39:12;99164.22;;;4.23;85.65
21824;BME280;11074;48.596;9.238;2023-01-31T00:41:38;99166.97;;;4.15;86.33
21824;BME280;11074;48.596;9.238;2023-01-31T00:44:05;99170.25;;;4.17;86.06
21824;BME280;11074;48.596;9.238;2023-01-31T00:46:30;99162.69;;;4.14;86.90
21824;BME280;11074;48.596;9.238;2023-01-31T00:48:56;99155.69;;;4.06;86.70
21824;BME280;11074;48.596;9.238;2023-01-31T00:51:24;99161.34;;;4.03;86.58
21824;BME280;11074;48.596;9.238;2023-01-31T00:53:50;99160.50;;;4.03;86.88
21824;BME280;11074;48.596;9.238;2023-01-31T00:56:19;99159.88;;;4.01;86.79
21824;BME280;11074;48.596;9.238;2023-01-31T00:58:47;99161.06;;;3.98;86.47
21824;BME280;11074;48.596;9.238;2023-01-31T01:01:20;99159.53;;;4.04;86.24
21824;BME280;11074;48.596;9.238;2023-01-31T01:03:47;99166.63;;;4.03;86.60
21824;BME280;11074;48.596;9.238;2023-01-31T01:06:13;99168.19;;;3.98;86.17
21824;BME280;11074;48.596;9.238;2023-01-31T01:08:41;99169.13;;;3.90;86.66
21824;BME280;11074;48.596;9.238;2023-01-31T01:11:10;99169.28;;;3.89;86.86
21824;BME280;11074;48.596;9.238;2023-01-31T01:13:37;99164.75;;;3.83;86.93
21824;BME280;11074;48.596;9.238;2023-01-31T01:16:16;99166.63;;;3.89;86.29
21824;BME280;11074;48.596;9.238;2023-01-31T01:18:42;99169.28;;;3.89;86.70
21824;BME280;11074;48.596;9.238;2023-01-31T01:21:18;99174.56;;;3.89;86.76
21824;BME280;11074;48.596;9.238;2023-01-31T01:23:45;99167.41;;;3.83;86.67
21824;BME280;11074;48.596;9.238;2023-01-31T01:26:21;99174.56;;;3.89;86.40
21824;BME280;11074;48.596;9.238;2023-01-31T01:28:48;99165.59;;;3.83;86.65
21824;BME280;11074;48.596;9.238;2023-01-31T01:31:15;99155.47;;;3.72;86.82
21824;BME280;11074;48.596;9.238;2023-01-31T01:33:43;99165.28;;;3.78;86.85
21824;BME280;11074;48.596;9.238;2023-01-31T01:36:11;99169.47;;;3.73;86.89
21824;BME280;11074;48.596;9.238;2023-01-31T01:38:39;99170.78;;;3.77;86.75
21824;BME280;11074;48.596;9.238;2023-01-31T01:41:06;99157.34;;;3.78;87.17
21824;BME280;11074;48.596;9.238;2023-01-31T01:43:53;99162.56;;;3.72;87.45
21824;BME280;11074;48.596;9.238;2023-01-31T01:46:43;99158.28;;;3.71;87.38
21824;BME280;11074;48.596;9.238;2023-01-31T01:49:16;99159.09;;;3.71;87.65
21824;BME280;11074;48.596;9.238;2023-01-31T01:51:46;99161.38;;;3.74;87.31
21824;BME280;11074;48.596;9.238;2023-01-31T01:54:21;99167.88;;;3.72;87.06
21824;BME280;11074;48.596;9.238;2023-01-31T01:56:53;99174.50;;;3.67;87.43
21824;BME280;11074;48.596;9.238;2023-01-31T01:59:29;99172.25;;;3.64;87.68
21824;BME280;11074;48.596;9.238;2023-01-31T02:01:56;99182.00;;;3.64;87.55
21824;BME280;11074;48.596;9.238;2023-01-31T02:04:28;99178.25;;;3.73;87.47
21824;BME280;11074;48.596;9.238;2023-01-31T02:06:55;99168.94;;;3.62;87.48
21824;BME280;11074;48.596;9.238;2023-01-31T02:09:41;99186.16;;;3.73;87.36
21824;BME280;11074;48.596;9.238;2023-01-31T02:12:11;99179.44;;;3.71;87.46
21824;BME280;11074;48.596;9.238;2023-01-31T02:14:37;99180.72;;;3.75;87.31
21824;BME280;11074;48.596;9.238;2023-01-31T02:17:03;99174.88;;;3.79;86.77
21824;BME280;11074;48.596;9.238;2023-01-31T02:22:18;99182.34;;;3.76;87.14
21824;BME280;11074;48.596;9.238;2023-01-31T02:25:31;99177.06;;;3.76;86.72
21824;BME280;11074;48.596;9.238;2023-01-31T02:31:37;99179.06;;;3.74;87.20
21824;BME280;11074;48.596;9.238;2023-01-31T02:34:21;99181.25;;;3.70;86.95
21824;BME280;11074;48.596;9.238;2023-01-31T02:37:18;99182.06;;;3.71;86.95
21824;BME280;11074;48.596;9.238;2023-01-31T02:40:18;99177.97;;;3.68;87.18
21824;BME280;11074;48.596;9.238;2023-01-31T02:42:53;99175.16;;;3.70;86.98
21824;BME280;11074;48.596;9.238;2023-01-31T02:45:36;99177.34;;;3.66;87.03
21824;BME280;11074;48.596;9.238;2023-01-31T02:51:07;99181.19;;;3.63;87.09
21824;BME280;11074;48.596;9.238;2023-01-31T02:53:48;99189.38;;;3.68;86.42
21824;BME280;11074;48.596;9.238;2023-01-31T02:56:27;99194.47;;;3.70;86.46
21824;BME280;11074;48.596;9.238;2023-01-31T02:59:21;99190.75;;;3.64;86.52
21824;BME280;11074;48.596;9.238;2023-01-31T03:01:58;99196.41;;;3.61;86.88
21824;BME280;11074;48.596;9.238;2023-01-31T03:04:30;99198.38;;;3.59;86.95
21824;BME280;11074;48.596;9.238;2023-01-31T03:07:21;99201.59;;;3.55;87.09
21824;BME280;11074;48.596;9.238;2023-01-31T03:10:38;99211.69;;;3.51;87.04
21824;BME280;11074;48.596;9.238;2023-01-31T03:13:24;99211.34;;;3.54;86.93
21824;BME280;11074;48.596;9.238;2023-01-31T03:19:14;99199.75;;;3.55;87.29
21824;BME280;11074;48.596;9.238;2023-01-31T03:21:51;99205.97;;;3.62;86.56
21824;BME280;11074;48.596;9.238;2023-01-31T03:24:21;99194.84;;;3.67;86.80
21824;BME280;11074;48.596;9.238;2023-01-31T03:26:52;99202.78;;;3.67;86.38
21824;BME280;11074;48.596;9.238;2023-01-31T03:29:20;99193.75;;;3.61;86.74
21824;BME280;11074;48.596;9.238;2023-01-31T03:31:56;99192.56;;;3.64;86.33
21824;BME280;11074;48.596;9.238;2023-01-31T03:34:24;99196.50;;;3.53;86.71
21824;BME280;11074;48.596;9.238;2023-01-31T03:37:22;99212.16;;;3.55;86.68
21824;BME280;11074;48.596;9.238;2023-01-31T03:40:16;99213.44;;;3.44;87.03
21824;BME280;11074;48.596;9.238;2023-01-31T03:43:00;99215.72;;;3.47;87.22
21824;BME280;11074;48.596;9.238;2023-01-31T03:45:37;99223.00;;;3.45;86.95
21824;BME280;11074;48.596;9.238;2023-01-31T03:48:07;99231.22;;;3.50;86.55
21824;BME280;11074;48.596;9.238;2023-01-31T03:50:41;99232.56;;;3.46;86.99
21824;BME280;11074;48.596;9.238;2023-01-31T03:56:05;99220.00;;;3.48;86.70
21824;BME280;11074;48.596;9.238;2023-01-31T03:58:41;99226.28;;;3.47;86.76
21824;BME280;11074;48.596;9.238;2023-01-31T04:01:11;99213.50;;;3.36;86.80
21824;BME280;11074;48.596;9.238;2023-01-31T04:03:58;99216.78;;;3.38;86.92
21824;BME280;11074;48.596;9.238;2023-01-31T04:06:26;99214.97;;;3.39;86.53
21824;BME280;11074;48.596;9.238;2023-01-31T04:08:53;99219.81;;;3.35;86.45
21824;BME280;11074;48.596;9.238;2023-01-31T04:11:25;99227.06;;;3.33;86.84
21824;BME280;11074;48.596;9.238;2023-01-31T04:13:51;99229.78;;;3.25;86.89
21824;BME280;11074;48.596;9.238;2023-01-31T04:16:17;99228.97;;;3.25;86.86
21824;BME280;11074;48.596;9.238;2023-01-31T04:18:43;99235.06;;;3.25;86.82
21824;BME280;11074;48.596;9.238;2023-01-31T04:21:09;99234.00;;;3.34;86.70
21824;BME280;11074;48.596;9.238;2023-01-31T04:23:35;99244.47;;;3.28;86.27
21824;BME280;11074;48.596;9.238;2023-01-31T04:26:01;99248.63;;;3.22;86.17
21824;BME280;11074;48.596;9.238;2023-01-31T04:28:27;99250.50;;;3.36;86.02
21824;BME280;11074;48.596;9.238;2023-01-31T04:30:54;99245.41;;;3.35;86.12
21824;BME280;11074;48.596;9.238;2023-01-31T04:33:21;99234.00;;;3.34;85.18
21824;BME280;11074;48.596;9.238;2023-01-31T04:35:47;99238.94;;;3.37;84.73
21824;BME280;11074;48.596;9.238;2023-01-31T04:38:13;99255.50;;;3.31;85.19
21824;BME280;11074;48.596;9.238;2023-01-31T04:40:38;99240.94;;;3.35;85.36
21824;BME280;11074;48.596;9.238;2023-01-31T04:43:04;99248.13;;;3.41;85.10
21824;BME280;11074;48.596;9.238;2023-01-31T04:45:30;99239.03;;;3.44;85.15
21824;BME280;11074;48.596;9.238;2023-01-31T04:47:55;99247.78;;;3.44;85.21
21824;BME280;11074;48.596;9.238;2023-01-31T04:50:21;99246.31;;;3.42;84.45
21824;BME280;11074;48.596;9.238;2023-01-31T04:52:50;99255.91;;;3.43;84.42
21824;BME280;11074;48.596;9.238;2023-01-31T04:55:17;99251.53;;;3.35;84.72
21824;BME280;11074;48.596;9.238;2023-01-31T04:57:43;99255.44;;;3.39;84.81
21824;BME280;11074;48.596;9.238;2023-01-31T05:00:10;99255.78;;;3.36;84.62
21824;BME280;11074;48.596;9.238;2023-01-31T05:02:35;99249.59;;;3.29;85.16
21824;BME280;11074;48.596;9.238;2023-01-31T05:05:02;99257.50;;;3.29;85.30
21824;BME280;11074;48.596;9.238;2023-01-31T05:07:28;99253.84;;;3.30;85.26
21824;BME280;11074;48.596;9.238;2023-01-31T05:09:54;99251.59;;;3.27;85.36
21824;BME280;11074;48.596;9.238;2023-01-31T05:12:20;99261.63;;;3.32;85.59
21824;BME280;11074;48.596;9.238;2023-01-31T05:14:45;99243.59;;;3.35;85.41
21824;BME280;11074;48.596;9.238;2023-01-31T05:17:11;99253.63;;;3.40;85.26
21824;BME280;11074;48.596;9.238;2023-01-31T05:19:37;99257.78;;;3.34;85.06
21824;BME280;11074;48.596;9.238;2023-01-31T05:22:03;99254.31;;;3.34;85.62
21824;BME280;11074;48.596;9.238;2023-01-31T05:24:31;99254.50;;;3.32;85.79
21824;BME280;11074;48.596;9.238;2023-01-31T05:27:00;99252.09;;;3.23;86.28
21824;BME280;11074;48.596;9.238;2023-01-31T05:29:28;99239.38;;;3.26;86.52
21824;BME280;11074;48.596;9.238;2023-01-31T05:31:57;99250.34;;;3.38;85.74
21824;BME280;11074;48.596;9.238;2023-01-31T05:34:27;99246.69;;;3.39;85.65
21824;BME280;11074;48.596;9.238;2023-01-31T05:36:55;99244.84;;;3.39;85.87
21824;BME280;11074;48.596;9.238;2023-01-31T05:39:21;99256.69;;;3.43;86.15
21824;BME280;11074;48.596;9.238;2023-01-31T05:41:47;99265.72;;;3.49;86.01
21824;BME280;11074;48.596;9.238;2023-01-31T05:44:13;99255.81;;;3.51;85.07
21824;BME280;11074;48.596;9.238;2023-01-31T05:46:41;99242.94;;;3.33;85.45
21824;BME280;11074;48.596;9.238;2023-01-31T05:49:07;99240.63;;;3.30;85.98
21824;BME280;11074;48.596;9.238;2023-01-31T05:51:32;99244.94;;;3.31;86.02
21824;BME280;11074;48.596;9.238;2023-01-31T05:53:58;99249.03;;;3.34;85.75
21824;BME280;11074;48.596;9.238;2023-01-31T05:56:24;99250.84;;;3.33;86.09
21824;BME280;11074;48.596;9.238;2023-01-31T05:58:50;99254.78;;;3.37;86.13
21824;BME280;11074;48.596;9.238;2023-01-31T06:01:22;99250.97;;;3.40;85.65
21824;BME280;11074;48.596;9.238;2023-01-31T06:03:48;99249.88;;;3.49;85.01
21824;BME280;11074;48.596;9.238;2023-01-31T06:06:14;99263.47;;;3.46;84.98
21824;BME280;11074;48.596;9.238;2023-01-31T06:08:40;99246.75;;;3.31;85.46
21824;BME280;11074;48.596;9.238;2023-01-31T06:11:10;99266.63;;;3.41;85.14
21824;BME280;11074;48.596;9.238;2023-01-31T06:13:38;99260.25;;;3.36;85.43
21824;BME280;11074;48.596;9.238;2023-01-31T06:16:05;99254.44;;;3.40;85.28
21824;BME280;11074;48.596;9.238;2023-01-31T06:18:31;99256.41;;;3.38;85.28
21824;BME280;11074;48.596;9.238;2023-01-31T06:20:57;99261.25;;;3.35;84.93
21824;BME280;11074;48.596;9.238;2023-01-31T06:23:23;99262.44;;;3.32;85.08
21824;BME280;11074;48.596;9.238;2023-01-31T06:25:53;99266.06;;;3.31;85.14
21824;BME280;11074;48.596;9.238;2023-01-31T06:28:20;99265.22;;;3.16;85.64
21824;BME280;11074;48.596;9.238;2023-01-31T06:30:46;99272.25;;;3.24;85.36
21824;BME280;11074;48.596;9.238;2023-01-31T06:33:12;99266.50;;;3.20;85.09
21824;BME280;11074;48.596;9.238;2023-01-31T06:35:39;99268.22;;;3.13;85.29
21824;BME280;11074;48.596;9.238;2023-01-31T06:38:05;99267.38;;;3.13;85.60
21824;BME280;11074;48.596;9.238;2023-01-31T06:40:32;99267.38;;;3.13;85.90
21824;BME280;11074;48.596;9.238;2023-01-31T06:42:58;99265.38;;;3.15;85.61
21824;BME280;11074;48.596;9.238;2023-01-31T06:45:24;99269.69;;;3.16;85.06
21824;BME280;11074;48.596;9.238;2023-01-31T06:47:50;99265.72;;;3.12;84.75
21824;BME280;11074;48.596;9.238;2023-01-31T06:50:16;99268.16;;;3.21;85.21
21824;BME280;11074;48.596;9.238;2023-01-31T06:52:42;99272.97;;;3.18;84.39
21824;BME280;11074;48.596;9.238;2023-01-31T06:55:08;99272.66;;;3.13;84.05
21824;BME280;11074;48.596;9.238;2023-01-31T06:57:34;99274.81;;;3.09;84.52
21824;BME280;11074;48.596;9.238;2023-01-31T07:00:00;99270.91;;;3.05;84.52
21824;BME280;11074;48.596;9.238;2023-01-31T07:02:26;99276.91;;;2.99;85.22
21824;BME280;11074;48.596;9.238;2023-01-31T07:04:51;99260.75;;;2.94;85.77
21824;BME280;11074;48.596;9.238;2023-01-31T07:07:18;99273.47;;;2.90;86.01
21824;BME280;11074;48.596;9.238;2023-01-31T07:09:43;99266.22;;;2.92;86.50
21824;BME280;11074;48.596;9.238;2023-01-31T07:12:09;99265.75;;;2.89;86.31
21824;BME280;11074;48.596;9.238;2023-01-31T07:14:35;99266.78;;;2.80;86.29
21824;BME280;11074;48.596;9.238;2023-01-31T07:17:01;99268.03;;;2.92;86.59
21824;BME280;11074;48.596;9.238;2023-01-31T07:19:27;99265.69;;;2.97;86.55
21824;BME280;11074;48.596;9.238;2023-01-31T07:21:52;99262.69;;;3.00;86.38
21824;BME280;11074;48.596;9.238;2023-01-31T07:24:18;99264.16;;;3.02;85.91
21824;BME280;11074;48.596;9.238;2023-01-31T07:26:44;99258.53;;;3.05;86.22
21824;BME280;11074;48.596;9.238;2023-01-31T07:29:09;99261.56;;;3.17;85.91
21824;BME280;11074;48.596;9.238;2023-01-31T07:31:37;99260.03;;;3.23;85.63
21824;BME280;11074;48.596;9.238;2023-01-31T07:34:03;99267.78;;;3.24;85.57
21824;BME280;11074;48.596;9.238;2023-01-31T07:36:28;99261.78;;;3.30;84.92
21824;BME280;11074;48.596;9.238;2023-01-31T07:38:56;99272.00;;;3.33;84.86
21824;BME280;11074;48.596;9.238;2023-01-31T07:41:23;99274.34;;;3.28;84.32
21824;BME280;11074;48.596;9.238;2023-01-31T07:43:50;99272.81;;;3.34;84.16
21824;BME280;11074;48.596;9.238;2023-01-31T07:46:17;99272.81;;;3.34;83.45
21824;BME280;11074;48.596;9.238;2023-01-31T07:48:43;99269.81;;;3.37;83.60
21824;BME280;11074;48.596;9.238;2023-01-31T07:51:09;99278.66;;;3.29;84.20
21824;BME280;11074;48.596;9.238;2023-01-31T07:53:38;99283.94;;;3.29;84.45
21824;BME280;11074;48.596;9.238;2023-01-31T07:56:14;99287.84;;;3.33;84.47
21824;BME280;11074;48.596;9.238;2023-01-31T07:58:41;99279.75;;;3.35;84.28
21824;BME280;11074;48.596;9.238;2023-01-31T08:01:13;99279.84;;;3.41;84.48
21824;BME280;11074;48.596;9.238;2023-01-31T08:03:58;99285.13;;;3.41;84.50
21824;BME280;11074;48.596;9.238;2023-01-31T08:06:26;99277.22;;;3.41;84.30
21824;BME280;11074;48.596;9.238;2023-01-31T08:08:55;99280.97;;;3.47;84.54
21824;BME280;11074;48.596;9.238;2023-01-31T08:11:20;99279.78;;;3.49;84.59
21824;BME280;11074;48.596;9.238;2023-01-31T08:13:46;99279.97;;;3.48;84.61
21824;BME280;11074;48.596;9.238;2023-01-31T08:16:12;99288.41;;;3.43;84.63
21824;BME280;11074;48.596;9.238;2023-01-31T08:18:38;99272.75;;;3.42;84.84
21824;BME280;11074;48.596;9.238;2023-01-31T08:21:05;99277.84;;;3.43;84.90
21824;BME280;11074;48.596;9.238;2023-01-31T08:23:32;99277.03;;;3.43;84.79
21824;BME280;11074;48.596;9.238;2023-01-31T08:26:14;99280.59;;;3.50;85.07
21824;BME280;11074;48.596;9.238;2023-01-31T08:28:42;99279.25;;;3.54;85.20
21824;BME280;11074;48.596;9.238;2023-01-31T08:31:18;99278.06;;;3.56;84.27
21824;BME280;11074;48.596;9.238;2023-01-31T08:33:45;99271.78;;;3.57;84.79
21824;BME280;11074;48.596;9.238;2023-01-31T08:36:31;99282.00;;;3.60;84.30
21824;BME280;11074;48.596;9.238;2023-01-31T08:38:58;99282.75;;;3.69;84.13
21824;BME280;11074;48.596;9.238;2023-01-31T08:41:25;99284.47;;;3.77;83.37
21824;BME280;11074;48.596;9.238;2023-01-31T08:43:52;99282.72;;;3.84;83.02
21824;BME280;11074;48.596;9.238;2023-01-31T08:46:20;99282.28;;;3.95;82.44
21824;BME280;11074;48.596;9.238;2023-01-31T08:48:46;99267.88;;;3.97;82.56
21824;BME280;11074;48.596;9.238;2023-01-31T08:51:12;99279.38;;;4.04;82.34
21824;BME280;11074;48.596;9.238;2023-01-31T08:53:43;99280.44;;;4.10;82.34
21824;BME280;11074;48.596;9.238;2023-01-31T08:56:11;99263.50;;;4.19;81.95
21824;BME280;11074;48.596;9.238;2023-01-31T08:58:39;99265.16;;;4.20;81.79
21824;BME280;11074;48.596;9.238;2023-01-31T09:01:13;99256.91;;;4.29;80.85
21824;BME280;11074;48.596;9.238;2023-01-31T09:03:39;99252.59;;;4.28;80.79
21824;BME280;11074;48.596;9.238;2023-01-31T09:06:10;99255.81;;;4.24;80.95
21824;BME280;11074;48.596;9.238;2023-01-31T09:08:36;99255.25;;;4.28;80.26
21824;BME280;11074;48.596;9.238;2023-01-31T09:11:02;99245.13;;;4.32;79.93
21824;BME280;11074;48.596;9.238;2023-01-31T09:13:30;99250.22;;;4.48;79.19
21824;BME280;11074;48.596;9.238;2023-01-31T09:16:06;99250.09;;;4.56;78.75
21824;BME280;11074;48.596;9.238;2023-01-31T09:18:33;99254.09;;;4.67;79.35
21824;BME280;11074;48.596;9.238;2023-01-31T09:21:15;99257.72;;;4.66;78.55
21824;BME280;11074;48.596;9.238;2023-01-31T09:23:43;99263.25;;;4.85;78.48
21824;BME280;11074;48.596;9.238;2023-01-31T09:26:10;99262.53;;;4.98;76.81
21824;BME280;11074;48.596;9.238;2023-01-31T09:28:37;99255.06;;;5.02;76.68
21824;BME280;11074;48.596;9.238;2023-01-31T09:31:06;99260.09;;;4.97;76.80
21824;BME280;11074;48.596;9.238;2023-01-31T09:33:33;99263.75;;;4.96;76.80
21824;BME280;11074;48.596;9.238;2023-01-31T09:36:08;99263.13;;;4.94;76.31
21824;BME280;11074;48.596;9.238;2023-01-31T09:38:35;99255.66;;;5.04;76.32
21824;BME280;11074;48.596;9.238;2023-01-31T09:41:06;99262.50;;;5.13;76.01
21824;BME280;11074;48.596;9.238;2023-01-31T09:43:43;99246.47;;;5.21;76.13
21824;BME280;11074;48.596;9.238;2023-01-31T09:46:16;99249.34;;;5.26;75.98
21824;BME280;11074;48.596;9.238;2023-01-31T09:48:48;99243.91;;;5.34;75.51
21824;BME280;11074;48.596;9.238;2023-01-31T09:51:17;99259.59;;;5.29;75.57
21824;BME280;11074;48.596;9.238;2023-01-31T09:53:45;99258.69;;;5.22;75.95
21824;BME280;11074;48.596;9.238;2023-01-31T09:56:23;99256.25;;;5.20;75.08
21824;BME280;11074;48.596;9.238;2023-01-31T09:59:02;99247.59;;;5.12;76.04
21824;BME280;11074;48.596;9.238;2023-01-31T10:04:43;99240.44;;;5.33;74.86
21824;BME280;11074;48.596;9.238;2023-01-31T10:07:28;99233.19;;;5.42;74.35
21824;BME280;11074;48.596;9.238;2023-01-31T10:10:20;99236.31;;;5.52;74.98
21824;BME280;11074;48.596;9.238;2023-01-31T10:12:54;99239.41;;;5.56;74.84
21824;BME280;11074;48.596;9.238;2023-01-31T10:15:34;99227.25;;;5.40;74.28
21824;BME280;11074;48.596;9.238;2023-01-31T10:23:28;99233.28;;;5.55;73.71
21824;BME280;11074;48.596;9.238;2023-01-31T10:26:05;99248.41;;;5.61;73.44
21824;BME280;11074;48.596;9.238;2023-01-31T10:31:39;99247.22;;;5.70;72.37
21824;BME280;11074;48.596;9.238;2023-01-31T10:34:17;99249.06;;;5.70;72.79
21824;BME280;11074;48.596;9.238;2023-01-31T10:37:08;99250.09;;;5.69;72.33
21824;BME280;11074;48.596;9.238;2023-01-31T10:39:55;99234.50;;;5.59;72.37
21824;BME280;11074;48.596;9.238;2023-01-31T10:42:38;99219.50;;;5.73;72.13
21824;BME280;11074;48.596;9.238;2023-01-31T10:47:40;99223.44;;;5.83;71.01
21824;BME280;11074;48.596;9.238;2023-01-31T10:50:30;99223.97;;;5.72;70.89
21824;BME280;11074;48.596;9.238;2023-01-31T10:56:06;99224.34;;;5.90;70.47
21824;BME280;11074;48.596;9.238;2023-01-31T10:58:35;99227.69;;;6.05;69.95
21824;BME280;11074;48.596;9.238;2023-01-31T11:01:06;99208.94;;;6.14;70.77
21824;BME280;11074;48.596;9.238;2023-01-31T11:03:37;99203.25;;;6.23;69.32
21824;BME280;11074;48.596;9.238;2023-01-31T11:06:03;99202.06;;;6.39;69.68
21824;BME280;11074;48.596;9.238;2023-01-31T11:08:49;99212.50;;;6.47;68.80
21824;BME280;11074;48.596;9.238;2023-01-31T11:11:22;99210.91;;;6.52;69.32
21824;BME280;11074;48.596;9.238;2023-01-31T11:14:00;99211.50;;;6.48;69.37
21824;BME280;11074;48.596;9.238;2023-01-31T11:16:34;99224.16;;;6.46;69.13
21824;BME280;11074;48.596;9.238;2023-01-31T11:19:19;99208.63;;;6.43;68.39
21824;BME280;11074;48.596;9.238;2023-01-31T11:21:52;99207.56;;;6.31;68.78
21824;BME280;11074;48.596;9.238;2023-01-31T11:24:22;99204.50;;;6.27;69.07
21824;BME280;11074;48.596;9.238;2023-01-31T11:26:58;99185.09;;;6.27;68.41
21824;BME280;11074;48.596;9.238;2023-01-31T11:29:30;99182.66;;;6.32;68.89
21824;BME280;11074;48.596;9.238;2023-01-31T11:31:59;99189.56;;;6.20;68.35
21824;BME280;11074;48.596;9.238;2023-01-31T11:34:29;99189.34;;;6.15;68.65
21824;BME280;11074;48.596;9.238;2023-01-31T11:37:16;99178.91;;;6.13;68.84
21824;BME280;11074;48.596;9.238;2023-01-31T11:39:58;99184.47;;;6.25;69.38
21824;BME280;11074;48.596;9.238;2023-01-31T11:42:24;99173.50;;;6.41;68.54
21824;BME280;11074;48.596;9.238;2023-01-31T11:45:02;99168.84;;;6.62;67.61
21824;BME280;11074;48.596;9.238;2023-01-31T11:47:51;99158.03;;;6.90;66.96
21824;BME280;11074;48.596;9.238;2023-01-31T11:53:01;99145.38;;;7.18;66.66
21824;BME280;11074;48.596;9.238;2023-01-31T11:55:38;99153.13;;;7.13;65.65
21824;BME280;11074;48.596;9.238;2023-01-31T11:58:16;99140.03;;;7.05;66.00
21824;BME280;11074;48.596;9.238;2023-01-31T12:00:54;99137.59;;;7.04;65.52
21824;BME280;11074;48.596;9.238;2023-01-31T12:03:21;99147.22;;;7.05;66.29
21824;BME280;11074;48.596;9.238;2023-01-31T12:06:04;99134.13;;;6.84;66.13
21824;BME280;11074;48.596;9.238;2023-01-31T12:08:37;99124.72;;;6.81;66.79
21824;BME280;11074;48.596;9.238;2023-01-31T12:13:51;99120.22;;;6.88;66.79
21824;BME280;11074;48.596;9.238;2023-01-31T12:16:21;99126.53;;;6.74;66.74
21824;BME280;11074;48.596;9.238;2023-01-31T12:22:02;99131.63;;;6.56;67.98
21824;BME280;11074;48.596;9.238;2023-01-31T12:24:47;99129.78;;;6.43;67.98
21824;BME280;11074;48.596;9.238;2023-01-31T12:31:06;99129.75;;;6.37;67.42
21824;BME280;11074;48.596;9.238;2023-01-31T12:37:00;99124.25;;;6.32;68.28
21824;BME280;11074;48.596;9.238;2023-01-31T12:42:52;99127.72;;;6.39;68.31
21824;BME280;11074;48.596;9.238;2023-01-31T12:48:46;99088.72;;;6.79;67.15
21824;BME280;11074;48.596;9.238;2023-01-31T12:51:49;99088.72;;;6.85;67.02
21824;BME280;11074;48.596;9.238;2023-01-31T13:06:31;99047.47;;;6.43;66.97
21824;BME280;11074;48.596;9.238;2023-01-31T13:09:18;99042.16;;;6.43;67.97
21824;BME280;11074;48.596;9.238;2023-01-31T13:11:57;99048.69;;;6.47;67.17
21824;BME280;11074;48.596;9.238;2023-01-31T13:14:33;99064.19;;;6.37;67.59
21824;BME280;11074;48.596;9.238;2023-01-31T13:17:04;99064.41;;;6.36;68.84
21824;BME280;11074;48.596;9.238;2023-01-31T13:19:50;99054.00;;;6.41;68.00
21824;BME280;11074;48.596;9.238;2023-01-31T13:22:48;99049.50;;;6.41;68.53
21824;BME280;11074;48.596;9.238;2023-01-31T13:25:36;99036.22;;;6.35;68.33
21824;BME280;11074;48.596;9.238;2023-01-31T13:28:54;99034.78;;;6.39;68.29
21824;BME280;11074;48.596;9.238;2023-01-31T13:31:29;99056.44;;;6.36;68.73
21824;BME280;11074;48.596;9.238;2023-01-31T13:34:01;99050.09;;;6.17;68.90
21824;BME280;11074;48.596;9.238;2023-01-31T13:36:42;99045.78;;;6.09;68.78
21824;BME280;11074;48.596;9.238;2023-01-31T13:39:42;99024.13;;;6.13;68.11
21824;BME280;11074;48.596;9.238;2023-01-31T13:42:14;99035.19;;;6.23;68.74
21824;BME280;11074;48.596;9.238;2023-01-31T13:44:46;99032.31;;;6.11;68.93
21824;BME280;11074;48.596;9.238;2023-01-31T13:47:27;99042.91;;;6.18;68.29
21824;BME280;11074;48.596;9.238;2023-01-31T13:52:51;99038.44;;;6.12;69.02
21824;BME280;11074;48.596;9.238;2023-01-31T13:55:33;99050.09;;;6.17;68.53
21824;BME280;11074;48.596;9.238;2023-01-31T13:58:15;99031.91;;;6.01;68.52
21824;BME280;11074;48.596;9.238;2023-01-31T14:00:47;99032.75;;;6.15;67.87
21824;BME280;11074;48.596;9.238;2023-01-31T14:03:19;99040.88;;;6.13;69.41
21824;BME280;11074;48.596;9.238;2023-01-31T14:05:56;99043.75;;;6.18;69.32
21824;BME280;11074;48.596;9.238;2023-01-31T14:11:00;99036.81;;;6.04;69.47
21824;BME280;11074;48.596;9.238;2023-01-31T14:15:59;99051.72;;;6.12;69.42
21824;BME280;11074;48.596;9.238;2023-01-31T14:18:43;99039.44;;;5.97;70.08
21824;BME280;11074;48.596;9.238;2023-01-31T14:23:57;99062.31;;;6.05;70.71
21824;BME280;11074;48.596;9.238;2023-01-31T14:29:21;99055.19;;;6.12;70.63
21824;BME280;11074;48.596;9.238;2023-01-31T14:31:49;99039.47;;;6.04;71.01
21824;BME280;11074;48.596;9.238;2023-01-31T14:34:24;99026.38;;;6.16;70.86
21824;BME280;11074;48.596;9.238;2023-01-31T14:40:44;99008.00;;;6.21;70.13
21824;BME280;11074;48.596;9.238;2023-01-31T14:44:05;99014.75;;;6.23;70.29
21824;BME280;11074;48.596;9.238;2023-01-31T14:56:11;99018.84;;;6.26;69.50
21824;BME280;11074;48.596;9.238;2023-01-31T14:58:43;99002.91;;;6.19;70.48
21824;BME280;11074;48.596;9.238;2023-01-31T15:01:11;98993.31;;;6.05;70.56
21824;BME280;11074;48.596;9.238;2023-01-31T15:03:47;98986.97;;;6.13;69.75
21824;BME280;11074;48.596;9.238;2023-01-31T15:06:37;98986.97;;;6.13;69.48
21824;BME280;11074;48.596;9.238;2023-01-31T15:11:51;98978.81;;;6.14;70.52